Time;durP1;ratioP1;P1;durP2;ratioP2;P2;SDS_P1;SDS_P2;PMS_P1;PMS_P2;Temp;Humidity;BMP_temperature;BMP_pressure;BME280_temperature;BME280_humidity;BME280_pressure;Samples;Min_cycle;Max_cycle;Signal;HPM_P1;HPM_P2
2023/01/12 00:01:22;;;;;;;6.13;1.42;;;;;;;;;;5001280;28;20486;-63
2023/01/12 00:03:49;;;;;;;4.03;1.10;;;;;;;;;;5008303;28;20151;-64
2023/01/12 00:06:15;;;;;;;4.75;1.30;;;;;;;;;;5003859;28;20046;-64
2023/01/12 00:08:42;;;;;;;4.35;1.35;;;;;;;;;;5010810;28;20072;-64
2023/01/12 00:11:08;;;;;;;6.85;1.48;;;;;;;;;;5002723;28;20042;-64
2023/01/12 00:13:34;;;;;;;6.63;1.40;;;;;;;;;;5013662;28;20053;-64
2023/01/12 00:18:46;;;;;;;6.38;1.10;;;;;;;;;;5010860;28;20092;-64
2023/01/12 00:21:13;;;;;;;9.25;2.15;;;;;;;;;;5021640;28;20060;-64
2023/01/12 00:23:41;;;;;;;10.48;2.22;;;;;;;;;;5013791;28;20049;-63
2023/01/12 00:26:08;;;;;;;6.32;1.73;;;;;;;;;;5021118;28;20478;-63
2023/01/12 00:28:34;;;;;;;9.50;2.25;;;;;;;;;;5013151;28;20053;-64
2023/01/12 00:31:01;;;;;;;9.85;2.20;;;;;;;;;;5005936;28;20053;-64
2023/01/12 00:33:28;;;;;;;7.43;1.88;;;;;;;;;;5011560;28;20108;-64
2023/01/12 00:35:54;;;;;;;9.50;2.45;;;;;;;;;;5002373;28;20494;-64
2023/01/12 00:38:20;;;;;;;8.43;2.30;;;;;;;;;;5011743;28;20124;-64
2023/01/12 00:40:46;;;;;;;12.07;2.90;;;;;;;;;;5006299;28;20049;-64
2023/01/12 00:45:57;;;;;;;10.40;2.65;;;;;;;;;;4997665;28;20092;-64
2023/01/12 00:48:24;;;;;;;9.73;2.13;;;;;;;;;;5010203;28;20505;-64
2023/01/12 00:50:50;;;;;;;9.48;2.25;;;;;;;;;;5012288;28;20050;-64
2023/01/12 00:53:16;;;;;;;12.27;3.20;;;;;;;;;;5004680;28;20046;-64
2023/01/12 00:55:44;;;;;;;12.45;2.63;;;;;;;;;;5015693;28;20490;-64
2023/01/12 00:58:11;;;;;;;9.27;2.42;;;;;;;;;;4999546;28;20132;-65
2023/01/12 01:00:37;;;;;;;14.27;3.25;;;;;;;;;;5005096;28;20065;-65
2023/01/12 01:03:03;;;;;;;16.48;3.30;;;;;;;;;;5005742;28;20056;-65
2023/01/12 01:05:30;;;;;;;9.45;3.50;;;;;;;;;;5010880;28;20045;-65
2023/01/12 01:07:56;;;;;;;14.55;3.40;;;;;;;;;;5014546;28;20048;-65
2023/01/12 01:10:23;;;;;;;11.77;3.60;;;;;;;;;;5003248;28;20869;-65
2023/01/12 01:12:50;;;;;;;14.70;3.50;;;;;;;;;;4987559;28;20046;-64
2023/01/12 01:15:17;;;;;;;12.73;4.03;;;;;;;;;;5001032;28;20540;-65
2023/01/12 01:17:43;;;;;;;16.08;3.53;;;;;;;;;;5008734;28;20053;-65
2023/01/12 01:20:10;;;;;;;12.10;3.53;;;;;;;;;;5003005;28;20414;-65
2023/01/12 01:22:36;;;;;;;15.82;3.90;;;;;;;;;;5014158;28;20409;-64
2023/01/12 01:25:03;;;;;;;13.75;3.47;;;;;;;;;;5004610;28;20049;-65
2023/01/12 01:27:29;;;;;;;18.27;4.18;;;;;;;;;;5004502;28;20049;-64
2023/01/12 01:29:56;;;;;;;18.45;3.92;;;;;;;;;;5011581;28;20050;-64
2023/01/12 01:32:22;;;;;;;20.15;5.32;;;;;;;;;;5010932;28;20042;-64
2023/01/12 01:34:48;;;;;;;24.58;4.00;;;;;;;;;;5015280;28;20092;-65
2023/01/12 01:37:15;;;;;;;11.10;3.60;;;;;;;;;;5006242;28;20272;-64
2023/01/12 01:39:42;;;;;;;12.10;3.58;;;;;;;;;;5010791;28;20103;-65
2023/01/12 01:42:26;;;;;;;10.60;3.28;;;;;;;;;;5017440;28;20430;-64
2023/01/12 01:44:54;;;;;;;7.82;2.50;;;;;;;;;;5007330;28;20112;-64
2023/01/12 01:47:24;;;;;;;9.82;3.05;;;;;;;;;;5015612;28;20483;-64
2023/01/12 01:49:51;;;;;;;10.73;2.60;;;;;;;;;;5007634;28;20112;-64
2023/01/12 01:52:30;;;;;;;13.70;3.10;;;;;;;;;;5002859;28;20072;-64
2023/01/12 01:55:00;;;;;;;11.45;2.78;;;;;;;;;;4996220;28;20044;-65
2023/01/12 01:57:30;;;;;;;9.25;2.55;;;;;;;;;;5009448;28;20080;-65
2023/01/12 01:59:57;;;;;;;8.70;2.42;;;;;;;;;;5008300;28;20576;-64
2023/01/12 02:02:24;;;;;;;11.35;2.30;;;;;;;;;;5016169;28;20060;-64
2023/01/12 02:04:51;;;;;;;13.93;2.63;;;;;;;;;;5036023;28;20054;-65
2023/01/12 02:07:17;;;;;;;10.75;2.88;;;;;;;;;;5018360;28;20130;-65
2023/01/12 02:09:44;;;;;;;11.60;2.25;;;;;;;;;;5015526;28;20112;-65
2023/01/12 02:17:59;;;;;;;12.32;2.78;;;;;;;;;;5013190;28;20048;-64
2023/01/12 02:20:45;;;;;;;9.80;2.38;;;;;;;;;;5010176;28;20073;-64
2023/01/12 02:23:24;;;;;;;13.25;2.88;;;;;;;;;;4998958;28;20056;-65
2023/01/12 02:25:56;;;;;;;12.70;2.50;;;;;;;;;;5016327;28;20406;-65
2023/01/12 02:28:38;;;;;;;13.88;2.65;;;;;;;;;;5006371;28;20053;-64
2023/01/12 02:31:21;;;;;;;14.48;2.72;;;;;;;;;;5029302;28;20095;-65
2023/01/12 02:33:55;;;;;;;10.05;2.17;;;;;;;;;;5026389;28;20041;-65
2023/01/12 02:36:39;;;;;;;10.23;2.40;;;;;;;;;;5021226;28;20478;-64
2023/01/12 02:39:25;;;;;;;10.88;1.98;;;;;;;;;;5001442;28;20045;-65
2023/01/12 02:44:50;;;;;;;7.88;1.80;;;;;;;;;;5028538;28;20046;-65
2023/01/12 02:47:19;;;;;;;9.32;2.00;;;;;;;;;;5010805;28;20050;-65
2023/01/12 02:49:49;;;;;;;11.65;2.22;;;;;;;;;;5018977;28;20049;-65
2023/01/12 02:52:20;;;;;;;9.82;2.28;;;;;;;;;;5002560;28;20483;-65
2023/01/12 02:54:48;;;;;;;14.02;1.92;;;;;;;;;;5021247;28;20038;-65
2023/01/12 02:57:15;;;;;;;11.18;2.28;;;;;;;;;;5015319;28;20077;-65
2023/01/12 02:59:44;;;;;;;12.50;1.90;;;;;;;;;;5024210;28;20049;-65
2023/01/12 03:02:29;;;;;;;7.43;1.80;;;;;;;;;;5011610;28;20165;-65
2023/01/12 03:04:55;;;;;;;9.48;1.70;;;;;;;;;;5014733;28;20441;-65
2023/01/12 03:07:43;;;;;;;9.38;1.98;;;;;;;;;;5021440;28;20050;-65
2023/01/12 03:10:19;;;;;;;16.98;2.75;;;;;;;;;;5012535;28;20042;-65
2023/01/12 03:12:47;;;;;;;9.82;2.22;;;;;;;;;;5026611;28;20046;-66
2023/01/12 03:15:15;;;;;;;14.07;3.33;;;;;;;;;;5016860;28;20695;-65
2023/01/12 03:17:49;;;;;;;11.48;2.95;;;;;;;;;;5025270;28;20045;-65
2023/01/12 03:20:21;;;;;;;11.13;2.08;;;;;;;;;;5006046;28;20072;-63
2023/01/12 03:22:48;;;;;;;8.27;2.10;;;;;;;;;;5021560;28;20052;-63
2023/01/12 03:25:15;;;;;;;10.60;2.50;;;;;;;;;;5017968;28;20073;-64
2023/01/12 03:27:45;;;;;;;9.53;2.30;;;;;;;;;;5006077;28;20123;-63
2023/01/12 03:30:17;;;;;;;14.77;2.38;;;;;;;;;;5007507;28;20073;-63
2023/01/12 03:32:43;;;;;;;13.05;2.03;;;;;;;;;;5011552;28;20051;-65
2023/01/12 03:35:10;;;;;;;12.80;2.35;;;;;;;;;;5022036;28;20041;-63
2023/01/12 03:37:40;;;;;;;13.32;2.67;;;;;;;;;;5014258;28;20460;-63
2023/01/12 03:40:42;;;;;;;10.95;2.28;;;;;;;;;;5028250;28;20038;-63
2023/01/12 03:43:08;;;;;;;13.85;2.55;;;;;;;;;;4935922;28;20488;-65
2023/01/12 03:45:39;;;;;;;12.02;1.80;;;;;;;;;;4997627;28;20501;-66
2023/01/12 03:48:13;;;;;;;11.57;2.30;;;;;;;;;;5023642;28;20091;-65
2023/01/12 03:50:42;;;;;;;9.60;1.95;;;;;;;;;;5014889;28;20045;-66
2023/01/12 03:53:09;;;;;;;13.30;2.50;;;;;;;;;;5013422;28;20611;-65
2023/01/12 03:55:36;;;;;;;14.35;2.30;;;;;;;;;;5015339;28;20154;-65
2023/01/12 03:58:03;;;;;;;10.07;1.73;;;;;;;;;;5011703;28;20426;-65
2023/01/12 04:00:29;;;;;;;15.25;2.00;;;;;;;;;;5017152;28;20050;-65
2023/01/12 04:03:09;;;;;;;5.35;1.55;;;;;;;;;;5020316;28;20060;-65
2023/01/12 04:05:36;;;;;;;7.05;1.92;;;;;;;;;;5010262;28;20481;-65
2023/01/12 04:08:03;;;;;;;10.43;1.90;;;;;;;;;;5016478;28;20600;-65
2023/01/12 04:10:29;;;;;;;8.02;1.58;;;;;;;;;;5012977;28;20050;-65
2023/01/12 04:12:55;;;;;;;10.75;1.85;;;;;;;;;;5007466;28;20041;-65
2023/01/12 04:15:22;;;;;;;10.32;2.03;;;;;;;;;;5018574;28;20056;-65
2023/01/12 04:17:48;;;;;;;10.98;2.47;;;;;;;;;;5007606;28;20132;-65
2023/01/12 04:20:14;;;;;;;9.40;2.15;;;;;;;;;;5021585;28;20053;-65
2023/01/12 04:22:42;;;;;;;9.10;1.38;;;;;;;;;;5009438;28;20473;-65
2023/01/12 04:25:19;;;;;;;9.50;1.52;;;;;;;;;;5003244;28;20296;-65
2023/01/12 04:27:49;;;;;;;6.85;1.50;;;;;;;;;;5015214;28;20045;-65
2023/01/12 04:30:17;;;;;;;10.05;1.98;;;;;;;;;;5005372;28;20054;-65
2023/01/12 04:32:44;;;;;;;6.83;1.43;;;;;;;;;;5024391;28;20049;-66
2023/01/12 04:35:13;;;;;;;10.77;1.60;;;;;;;;;;5019399;28;20520;-66
2023/01/12 04:37:39;;;;;;;6.85;1.40;;;;;;;;;;5020140;28;20154;-66
2023/01/12 04:40:07;;;;;;;10.70;1.70;;;;;;;;;;5018341;28;20513;-66
2023/01/12 04:45:18;;;;;;;9.27;1.52;;;;;;;;;;5017393;28;20041;-65
2023/01/12 04:47:44;;;;;;;8.30;1.30;;;;;;;;;;5011435;28;20104;-66
2023/01/12 04:50:10;;;;;;;9.07;1.50;;;;;;;;;;5016541;28;20046;-66
2023/01/12 04:52:37;;;;;;;11.32;2.17;;;;;;;;;;5012252;28;20049;-65
2023/01/12 04:55:04;;;;;;;9.40;1.50;;;;;;;;;;5009924;28;20045;-66
2023/01/12 04:57:31;;;;;;;6.80;1.73;;;;;;;;;;5016159;28;20049;-66
2023/01/12 04:59:58;;;;;;;8.07;1.63;;;;;;;;;;5011603;28;20550;-66
2023/01/12 05:02:24;;;;;;;9.48;1.85;;;;;;;;;;5011939;28;20042;-65
2023/01/12 05:04:50;;;;;;;9.38;2.15;;;;;;;;;;5006125;28;20123;-65
2023/01/12 05:07:17;;;;;;;7.22;1.75;;;;;;;;;;5012890;28;20049;-66
2023/01/12 05:12:28;;;;;;;10.82;1.55;;;;;;;;;;5018512;28;20681;-66
2023/01/12 05:14:55;;;;;;;8.13;1.50;;;;;;;;;;5010851;28;20038;-66
2023/01/12 05:17:21;;;;;;;8.63;2.00;;;;;;;;;;5014936;28;20053;-66
2023/01/12 05:19:48;;;;;;;10.50;1.60;;;;;;;;;;5007600;28;20045;-66
2023/01/12 05:22:14;;;;;;;6.40;1.40;;;;;;;;;;5004789;28;20375;-66
2023/01/12 05:24:41;;;;;;;8.70;1.83;;;;;;;;;;5018142;28;20060;-65
2023/01/12 05:27:07;;;;;;;4.00;1.40;;;;;;;;;;5008671;28;20525;-65
2023/01/12 05:29:33;;;;;;;7.50;1.17;;;;;;;;;;5019907;28;20061;-66
2023/01/12 05:31:59;;;;;;;5.78;1.50;;;;;;;;;;5013576;28;20049;-66
2023/01/12 05:34:26;;;;;;;6.50;0.90;;;;;;;;;;5017856;28;20467;-66
2023/01/12 05:36:52;;;;;;;5.28;1.23;;;;;;;;;;5014818;28;20050;-66
2023/01/12 05:39:20;;;;;;;4.72;1.00;;;;;;;;;;5012958;28;20045;-66
2023/01/12 05:44:31;;;;;;;4.43;0.90;;;;;;;;;;5012960;28;20057;-66
2023/01/12 05:46:57;;;;;;;6.03;1.23;;;;;;;;;;5002466;28;20050;-65
2023/01/12 05:49:24;;;;;;;6.30;1.40;;;;;;;;;;5006432;28;20052;-66
2023/01/12 05:51:50;;;;;;;6.78;1.10;;;;;;;;;;5017111;28;20144;-65
2023/01/12 05:54:16;;;;;;;4.22;1.10;;;;;;;;;;5016721;28;20103;-65
2023/01/12 05:56:43;;;;;;;5.40;1.42;;;;;;;;;;5009202;28;20053;-66
2023/01/12 05:59:10;;;;;;;6.20;1.20;;;;;;;;;;5016591;28;20041;-66
2023/01/12 06:01:39;;;;;;;8.65;1.25;;;;;;;;;;5006212;28;20068;-66
2023/01/12 06:04:05;;;;;;;;;;;;;;;;;;5018317;28;20054;-65
2023/01/12 06:06:31;;;;;;;7.55;1.80;;;;;;;;;;5012319;28;19921;-66
2023/01/12 06:08:58;;;;;;;4.57;1.10;;;;;;;;;;5014935;28;20068;-65
2023/01/12 06:14:10;;;;;;;10.15;1.98;;;;;;;;;;5004454;28;20037;-65
2023/01/12 06:16:37;;;;;;;5.60;1.00;;;;;;;;;;5011601;28;20069;-65
2023/01/12 06:19:03;;;;;;;7.40;1.60;;;;;;;;;;5003927;28;20049;-65
2023/01/12 06:21:30;;;;;;;3.42;1.08;;;;;;;;;;5020634;28;20064;-65
2023/01/12 06:23:57;;;;;;;6.40;1.00;;;;;;;;;;5010202;28;20490;-65
2023/01/12 06:26:23;;;;;;;8.02;1.35;;;;;;;;;;5007650;28;20056;-65
2023/01/12 06:28:49;;;;;;;6.20;1.67;;;;;;;;;;5006219;28;20042;-66
2023/01/12 06:31:15;;;;;;;6.15;0.90;;;;;;;;;;5013153;28;20042;-65
2023/01/12 06:33:42;;;;;;;4.68;1.15;;;;;;;;;;5018498;28;20685;-65
2023/01/12 06:36:09;;;;;;;4.15;0.80;;;;;;;;;;5007094;28;20133;-65
2023/01/12 06:38:38;;;;;;;4.68;0.88;;;;;;;;;;5014355;28;20046;-65
2023/01/12 06:41:06;;;;;;;6.32;1.13;;;;;;;;;;5013491;28;20057;-65
2023/01/12 06:43:33;;;;;;;5.55;1.00;;;;;;;;;;5013765;28;20149;-66
2023/01/12 06:45:59;;;;;;;5.03;1.33;;;;;;;;;;5008952;28;20135;-65
2023/01/12 06:48:25;;;;;;;4.10;1.25;;;;;;;;;;5005294;28;20052;-65
2023/01/12 06:51:04;;;;;;;3.00;1.10;;;;;;;;;;5011644;28;20163;-66
2023/01/12 06:53:30;;;;;;;5.18;0.95;;;;;;;;;;5002388;28;20042;-65
2023/01/12 06:55:57;;;;;;;5.32;0.95;;;;;;;;;;4988865;28;20495;-66
2023/01/12 06:58:23;;;;;;;6.28;1.20;;;;;;;;;;4998543;28;20139;-65
2023/01/12 07:00:49;;;;;;;6.03;1.35;;;;;;;;;;5015247;28;20052;-66
2023/01/12 07:03:17;;;;;;;3.42;0.90;;;;;;;;;;5018912;28;20042;-65
2023/01/12 07:05:43;;;;;;;3.10;1.00;;;;;;;;;;5004683;28;20061;-65
2023/01/12 07:08:10;;;;;;;3.42;1.00;;;;;;;;;;5011789;28;20049;-65
2023/01/12 07:10:37;;;;;;;2.25;0.90;;;;;;;;;;4996000;28;20058;-65
2023/01/12 07:13:03;;;;;;;2.50;0.98;;;;;;;;;;5010213;28;20049;-65
2023/01/12 07:15:29;;;;;;;7.32;1.52;;;;;;;;;;5010327;28;20053;-65
2023/01/12 07:17:56;;;;;;;5.03;1.00;;;;;;;;;;5015357;28;20041;-66
2023/01/12 07:20:23;;;;;;;3.63;1.02;;;;;;;;;;5029285;28;20049;-66
2023/01/12 07:22:49;;;;;;;3.42;1.00;;;;;;;;;;5012801;28;20552;-65
2023/01/12 07:25:15;;;;;;;3.22;1.02;;;;;;;;;;5014217;28;20064;-65
2023/01/12 07:27:48;;;;;;;3.85;1.30;;;;;;;;;;5002111;28;20046;-67
2023/01/12 07:30:14;;;;;;;2.03;1.08;;;;;;;;;;5016178;28;20062;-67
2023/01/12 07:32:41;;;;;;;3.60;1.30;;;;;;;;;;5020726;28;20576;-67
2023/01/12 07:35:07;;;;;;;3.00;1.63;;;;;;;;;;5019520;28;20056;-67
2023/01/12 07:37:34;;;;;;;3.58;1.00;;;;;;;;;;5015496;28;20502;-67
2023/01/12 07:40:00;;;;;;;3.05;1.05;;;;;;;;;;5016272;28;20087;-66
2023/01/12 07:42:27;;;;;;;3.03;1.40;;;;;;;;;;5015196;28;20046;-66
2023/01/12 07:44:53;;;;;;;3.72;1.58;;;;;;;;;;4994983;28;20130;-66
2023/01/12 07:47:20;;;;;;;1.85;1.23;;;;;;;;;;5023565;28;20141;-67
2023/01/12 07:49:46;;;;;;;4.20;1.15;;;;;;;;;;5012178;28;20459;-66
2023/01/12 07:52:13;;;;;;;1.92;1.05;;;;;;;;;;5005765;28;20133;-67
2023/01/12 07:54:40;;;;;;;4.25;2.28;;;;;;;;;;5010834;28;20049;-67
2023/01/12 07:57:08;;;;;;;2.67;1.30;;;;;;;;;;4998212;28;20062;-67
2023/01/12 07:59:35;;;;;;;6.05;1.40;;;;;;;;;;4988022;28;20046;-66
2023/01/12 08:02:02;;;;;;;2.42;1.20;;;;;;;;;;5009760;28;20053;-67
2023/01/12 08:04:28;;;;;;;3.58;1.50;;;;;;;;;;5025896;28;20060;-67
2023/01/12 08:06:55;;;;;;;3.85;1.60;;;;;;;;;;5008574;28;20054;-67
2023/01/12 08:09:22;;;;;;;2.97;1.50;;;;;;;;;;5014401;28;20103;-66
2023/01/12 08:11:48;;;;;;;5.40;1.85;;;;;;;;;;5009132;28;20061;-66
2023/01/12 08:14:30;;;;;;;6.57;1.95;;;;;;;;;;5017682;28;20107;-65
2023/01/12 08:17:00;;;;;;;4.03;1.30;;;;;;;;;;5022319;28;20401;-67
2023/01/12 08:19:35;;;;;;;3.80;1.67;;;;;;;;;;5013703;28;20525;-67
2023/01/12 08:22:03;;;;;;;3.03;2.00;;;;;;;;;;5002754;28;20060;-66
2023/01/12 08:24:32;;;;;;;2.65;1.80;;;;;;;;;;5020223;28;20136;-67
2023/01/12 08:27:00;;;;;;;1.98;1.30;;;;;;;;;;5011909;28;20054;-67
2023/01/12 08:29:31;;;;;;;3.23;1.83;;;;;;;;;;5003454;28;20049;-66
2023/01/12 08:32:02;;;;;;;3.25;1.60;;;;;;;;;;5009703;28;21038;-68
2023/01/12 08:34:40;;;;;;;6.05;2.08;;;;;;;;;;5017475;28;20045;-67
2023/01/12 08:37:08;;;;;;;3.55;1.92;;;;;;;;;;4996236;28;20054;-67
2023/01/12 08:39:35;;;;;;;2.50;1.40;;;;;;;;;;4999446;28;20049;-66
2023/01/12 08:42:02;;;;;;;3.63;1.90;;;;;;;;;;5010494;28;20082;-67
2023/01/12 08:44:32;;;;;;;3.30;1.80;;;;;;;;;;5018087;28;20133;-67
2023/01/12 08:46:59;;;;;;;2.30;1.70;;;;;;;;;;5014718;28;20420;-67
2023/01/12 08:49:26;;;;;;;3.08;1.80;;;;;;;;;;5006787;28;20050;-68
2023/01/12 08:51:53;;;;;;;2.78;1.40;;;;;;;;;;5005351;28;20053;-67
2023/01/12 08:54:20;;;;;;;2.78;1.52;;;;;;;;;;5013702;28;20522;-67
2023/01/12 08:56:48;;;;;;;6.30;1.80;;;;;;;;;;5013614;28;20045;-68
2023/01/12 08:59:18;;;;;;;1.63;1.30;;;;;;;;;;5010217;28;20058;-66
2023/01/12 09:01:44;;;;;;;4.95;1.45;;;;;;;;;;5002042;28;20069;-68
2023/01/12 09:04:11;;;;;;;3.53;1.90;;;;;;;;;;5008950;28;20052;-67
2023/01/12 09:06:39;;;;;;;2.40;1.67;;;;;;;;;;5014663;28;20552;-68
2023/01/12 09:09:08;;;;;;;5.50;2.20;;;;;;;;;;5015617;28;20145;-68
2023/01/12 09:11:35;;;;;;;3.55;2.05;;;;;;;;;;5000790;28;20054;-67
2023/01/12 09:14:01;;;;;;;3.15;1.75;;;;;;;;;;5014756;28;20056;-66
2023/01/12 09:16:29;;;;;;;3.20;2.38;;;;;;;;;;5009704;28;20133;-67
2023/01/12 09:18:58;;;;;;;4.00;1.55;;;;;;;;;;5016822;28;20065;-67
2023/01/12 09:21:26;;;;;;;3.15;1.70;;;;;;;;;;5008954;28;20538;-68
2023/01/12 09:23:53;;;;;;;2.35;1.77;;;;;;;;;;5009623;28;20057;-69
2023/01/12 09:26:21;;;;;;;3.55;2.15;;;;;;;;;;5005477;28;20104;-66
2023/01/12 09:28:48;;;;;;;4.28;1.85;;;;;;;;;;5013002;28;20056;-68
2023/01/12 09:31:16;;;;;;;3.20;2.25;;;;;;;;;;5006582;28;20136;-67
2023/01/12 09:33:45;;;;;;;5.03;2.05;;;;;;;;;;5008387;28;20053;-67
2023/01/12 09:36:12;;;;;;;5.20;1.92;;;;;;;;;;5015076;28;20048;-67
2023/01/12 09:38:39;;;;;;;3.03;1.92;;;;;;;;;;5009354;28;20049;-67
2023/01/12 09:46:57;;;;;;;3.78;1.77;;;;;;;;;;4998399;28;20044;-68
2023/01/12 09:47:14;;;;;;;2.70;1.58;;;;;;;;;;5009349;28;20510;-67
2023/01/12 09:49:44;;;;;;;2.92;2.03;;;;;;;;;;5006993;28;20132;-68
2023/01/12 09:52:28;;;;;;;3.72;2.20;;;;;;;;;;5016315;28;20046;-68
2023/01/12 09:54:55;;;;;;;6.03;2.35;;;;;;;;;;5003037;28;20096;-68
2023/01/12 09:57:44;;;;;;;4.07;1.75;;;;;;;;;;5000120;28;20512;-68
2023/01/12 10:00:16;;;;;;;3.50;2.00;;;;;;;;;;5017012;28;20387;-68
2023/01/12 10:02:47;;;;;;;2.72;1.90;;;;;;;;;;5015486;28;20512;-68
2023/01/12 10:05:36;;;;;;;4.18;1.75;;;;;;;;;;5010911;28;20106;-68
2023/01/12 10:08:08;;;;;;;2.72;1.10;;;;;;;;;;5008981;28;20061;-68
2023/01/12 10:10:35;;;;;;;3.70;1.67;;;;;;;;;;5005074;28;20053;-68
2023/01/12 10:13:03;;;;;;;2.70;1.40;;;;;;;;;;5005272;28;20128;-68
2023/01/12 10:15:45;;;;;;;2.17;1.63;;;;;;;;;;5008170;28;20053;-68
2023/01/12 10:18:19;;;;;;;2.05;1.23;;;;;;;;;;5010376;28;20049;-68
2023/01/12 10:20:46;;;;;;;2.45;1.25;;;;;;;;;;5016398;28;20489;-68
2023/01/12 10:23:13;;;;;;;1.98;1.17;;;;;;;;;;5007408;28;20050;-68
2023/01/12 10:25:47;;;;;;;4.60;1.23;;;;;;;;;;5006304;28;20045;-68
2023/01/12 10:28:16;;;;;;;2.60;1.33;;;;;;;;;;5018650;28;20041;-68
2023/01/12 10:30:43;;;;;;;1.55;1.20;;;;;;;;;;5013265;28;20084;-68
2023/01/12 10:33:11;;;;;;;5.03;1.35;;;;;;;;;;5019956;28;20065;-67
2023/01/12 10:35:54;;;;;;;1.50;0.98;;;;;;;;;;5012343;28;20100;-67
2023/01/12 10:38:23;;;;;;;2.22;1.20;;;;;;;;;;5013995;28;20103;-68
2023/01/12 10:41:03;;;;;;;1.25;1.10;;;;;;;;;;5002085;28;20049;-68
2023/01/12 10:43:33;;;;;;;2.47;1.00;;;;;;;;;;5019232;28;20057;-68
2023/01/12 10:46:02;;;;;;;1.38;1.08;;;;;;;;;;5016323;28;20048;-69
2023/01/12 10:48:29;;;;;;;0.93;0.82;;;;;;;;;;5019370;28;20064;-68
2023/01/12 10:51:06;;;;;;;1.20;1.10;;;;;;;;;;5000973;28;20042;-69
2023/01/12 10:53:48;;;;;;;1.30;1.00;;;;;;;;;;5007916;28;20064;-68
2023/01/12 10:56:27;;;;;;;1.10;1.00;;;;;;;;;;5025401;28;20057;-68
2023/01/12 10:58:59;;;;;;;2.17;1.20;;;;;;;;;;5007336;28;20057;-68
2023/01/12 11:01:25;;;;;;;2.55;1.15;;;;;;;;;;5013769;28;20498;-68
2023/01/12 11:04:02;;;;;;;1.77;1.20;;;;;;;;;;5010781;28;20049;-67
2023/01/12 11:06:30;;;;;;;2.63;1.45;;;;;;;;;;5012419;28;20060;-67
2023/01/12 11:08:56;;;;;;;1.23;1.07;;;;;;;;;;5016137;28;20041;-68
2023/01/12 11:11:32;;;;;;;3.22;1.10;;;;;;;;;;5010885;28;20045;-68
2023/01/12 11:14:03;;;;;;;1.10;1.00;;;;;;;;;;5018125;28;20046;-68
2023/01/12 11:16:30;;;;;;;1.83;1.20;;;;;;;;;;5009464;28;20065;-67
2023/01/12 11:19:03;;;;;;;1.63;1.15;;;;;;;;;;5018138;28;20046;-67
2023/01/12 11:21:32;;;;;;;3.42;1.30;;;;;;;;;;5005372;28;20069;-68
2023/01/12 11:24:15;;;;;;;1.92;1.10;;;;;;;;;;5015138;28;20089;-68
2023/01/12 11:26:44;;;;;;;1.17;1.08;;;;;;;;;;5014015;28;20045;-68
2023/01/12 11:29:10;;;;;;;;;;;;;;;;;;5015666;28;20049;-68
2023/01/12 11:31:40;;;;;;;1.38;1.27;;;;;;;;;;5020932;28;19932;-67
2023/01/12 11:34:09;;;;;;;1.20;1.10;;;;;;;;;;5008932;28;20046;-68
2023/01/12 11:36:39;;;;;;;6.00;1.60;;;;;;;;;;5010950;28;20050;-68
2023/01/12 11:39:14;;;;;;;1.38;1.20;;;;;;;;;;5010100;28;20064;-67
2023/01/12 11:43:47;;;;;;;4.80;1.67;;;;;;;;;;5024140;28;20418;-67
2023/01/12 11:44:47;;;;;;;2.17;1.40;;;;;;;;;;5017999;28;20057;-68
2023/01/12 11:47:14;;;;;;;4.30;1.90;;;;;;;;;;5016633;28;20691;-67
2023/01/12 11:49:47;;;;;;;1.73;1.48;;;;;;;;;;5003707;28;20571;-67
2023/01/12 11:52:14;;;;;;;2.17;1.42;;;;;;;;;;5014482;28;20057;-68
2023/01/12 11:54:41;;;;;;;2.10;1.52;;;;;;;;;;5020212;28;20050;-67
2023/01/12 11:57:10;;;;;;;4.00;1.58;;;;;;;;;;5010924;28;20099;-67
2023/01/12 11:59:42;;;;;;;2.88;1.60;;;;;;;;;;5014800;28;20482;-67
2023/01/12 12:02:27;;;;;;;3.08;1.42;;;;;;;;;;5001076;28;20045;-67
2023/01/12 12:04:54;;;;;;;1.65;1.20;;;;;;;;;;5005453;28;20136;-68
2023/01/12 12:07:26;;;;;;;1.80;1.60;;;;;;;;;;5008092;28;20058;-67
2023/01/12 12:10:11;;;;;;;1.35;1.25;;;;;;;;;;5016320;28;20410;-67
2023/01/12 12:12:46;;;;;;;1.73;1.38;;;;;;;;;;5018437;28;20054;-68
2023/01/12 12:15:15;;;;;;;2.00;1.50;;;;;;;;;;5021950;28;20414;-68
2023/01/12 12:18:00;;;;;;;1.77;1.50;;;;;;;;;;5008208;28;20448;-68
2023/01/12 12:20:35;;;;;;;1.30;1.17;;;;;;;;;;5017610;28;20088;-67
2023/01/12 12:23:20;;;;;;;1.30;1.20;;;;;;;;;;5017142;28;20041;-67
2023/01/12 12:26:01;;;;;;;1.27;1.10;;;;;;;;;;5009616;28;20063;-68
2023/01/12 12:28:31;;;;;;;1.70;1.20;;;;;;;;;;5019866;28;20054;-68
2023/01/12 12:31:15;;;;;;;1.15;1.05;;;;;;;;;;5001317;28;20056;-68
2023/01/12 12:33:52;;;;;;;1.55;1.00;;;;;;;;;;5013095;28;20445;-68
2023/01/12 12:36:18;;;;;;;1.40;1.20;;;;;;;;;;4998482;28;20061;-68
2023/01/12 12:39:09;;;;;;;1.40;1.10;;;;;;;;;;5017732;28;20061;-68
2023/01/12 12:47:43;;;;;;;1.85;0.93;;;;;;;;;;5006845;28;20052;-68
2023/01/12 12:50:16;;;;;;;1.50;1.10;;;;;;;;;;5012219;28;20064;-67
2023/01/12 12:52:43;;;;;;;1.38;1.17;;;;;;;;;;5016824;28;20909;-67
2023/01/12 12:55:11;;;;;;;1.07;0.90;;;;;;;;;;5022006;28;20490;-67
2023/01/12 12:57:56;;;;;;;1.70;1.20;;;;;;;;;;5020133;28;20052;-67
2023/01/12 13:00:30;;;;;;;1.42;1.00;;;;;;;;;;5014697;28;20045;-67
2023/01/12 13:02:57;;;;;;;1.90;1.10;;;;;;;;;;5012085;28;20046;-66
2023/01/12 13:05:41;;;;;;;1.92;1.50;;;;;;;;;;5018403;28;20121;-67
2023/01/12 13:08:24;;;;;;;1.90;1.25;;;;;;;;;;5019683;28;20532;-66
2023/01/12 13:10:55;;;;;;;2.80;1.25;;;;;;;;;;5010514;28;20061;-66
2023/01/12 13:13:22;;;;;;;2.53;1.50;;;;;;;;;;5010649;28;20069;-66
2023/01/12 13:15:49;;;;;;;3.53;1.87;;;;;;;;;;5012573;28;20087;-67
2023/01/12 13:18:34;;;;;;;2.20;1.23;;;;;;;;;;5017377;28;20069;-66
2023/01/12 13:21:00;;;;;;;4.07;1.52;;;;;;;;;;5007584;28;20053;-66
2023/01/12 13:23:46;;;;;;;2.40;1.52;;;;;;;;;;5006408;28;20056;-68
2023/01/12 13:26:22;;;;;;;2.53;1.60;;;;;;;;;;5013281;28;20452;-69
2023/01/12 13:29:08;;;;;;;2.03;1.30;;;;;;;;;;5013808;28;20489;-67
2023/01/12 13:31:35;;;;;;;2.67;1.08;;;;;;;;;;5010403;28;20144;-68
2023/01/12 13:34:20;;;;;;;1.70;1.20;;;;;;;;;;5011021;28;20418;-67
2023/01/12 13:37:02;;;;;;;1.98;0.90;;;;;;;;;;5015834;28;20061;-66
2023/01/12 13:39:28;;;;;;;1.95;0.80;;;;;;;;;;5001602;28;20561;-67
2023/01/12 13:44:43;;;;;;;1.27;0.80;;;;;;;;;;5014923;28;20049;-68
2023/01/12 13:47:26;;;;;;;2.55;0.90;;;;;;;;;;5013320;28;20046;-68
2023/01/12 13:49:56;;;;;;;1.27;0.80;;;;;;;;;;5004826;28;20085;-67
2023/01/12 13:52:34;;;;;;;1.38;0.80;;;;;;;;;;5012580;28;20045;-68
2023/01/12 13:55:01;;;;;;;4.07;1.00;;;;;;;;;;5014886;28;20046;-68
2023/01/12 13:57:28;;;;;;;1.17;0.77;;;;;;;;;;5022911;28;20080;-68
2023/01/12 13:59:58;;;;;;;1.55;0.80;;;;;;;;;;5014018;28;20052;-68
2023/01/12 14:02:27;;;;;;;0.70;0.70;;;;;;;;;;5019430;28;20095;-68
2023/01/12 14:04:57;;;;;;;2.25;0.77;;;;;;;;;;5018847;28;20046;-68
2023/01/12 14:07:37;;;;;;;1.23;0.80;;;;;;;;;;5010814;28;20056;-68
2023/01/12 14:10:13;;;;;;;2.60;1.05;;;;;;;;;;5008954;28;20042;-67
2023/01/12 14:12:39;;;;;;;1.45;0.90;;;;;;;;;;5011412;28;20049;-68
2023/01/12 14:18:12;;;;;;;1.65;0.70;;;;;;;;;;5015388;28;20045;-68
2023/01/12 14:21:04;;;;;;;1.23;0.70;;;;;;;;;;5001814;28;20042;-67
2023/01/12 14:23:34;;;;;;;2.03;0.60;;;;;;;;;;5004550;28;20457;-67
2023/01/12 14:26:10;;;;;;;0.70;0.70;;;;;;;;;;5008600;28;20497;-67
2023/01/12 14:28:37;;;;;;;3.00;0.88;;;;;;;;;;5014518;28;20490;-67
2023/01/12 14:31:04;;;;;;;1.17;0.70;;;;;;;;;;5011684;28;20474;-67
2023/01/12 14:33:32;;;;;;;1.83;0.80;;;;;;;;;;5021984;28;20507;-67
2023/01/12 14:36:06;;;;;;;1.48;0.80;;;;;;;;;;5002461;28;20681;-68
2023/01/12 14:38:35;;;;;;;1.25;0.63;;;;;;;;;;5014063;28;20046;-67
2023/01/12 14:41:05;;;;;;;0.80;0.70;;;;;;;;;;5010047;28;20054;-68
2023/01/12 14:46:25;;;;;;;1.67;0.50;;;;;;;;;;5011970;28;20058;-67
2023/01/12 14:48:54;;;;;;;0.50;0.50;;;;;;;;;;5004697;28;20141;-67
2023/01/12 14:51:23;;;;;;;0.60;0.60;;;;;;;;;;5014101;28;20429;-67
2023/01/12 14:53:56;;;;;;;1.20;0.68;;;;;;;;;;5012422;28;20107;-67
2023/01/12 14:56:27;;;;;;;0.80;0.55;;;;;;;;;;5011244;28;20042;-67
2023/01/12 14:59:03;;;;;;;0.70;0.70;;;;;;;;;;5012881;28;20563;-67
2023/01/12 15:01:38;;;;;;;1.10;1.00;;;;;;;;;;5004352;28;20138;-67
2023/01/12 15:04:05;;;;;;;0.90;0.80;;;;;;;;;;5010286;28;20656;-67
2023/01/12 15:06:40;;;;;;;0.88;0.70;;;;;;;;;;5020365;28;20452;-67
2023/01/12 15:09:21;;;;;;;0.68;0.60;;;;;;;;;;5017836;28;20081;-67
2023/01/12 15:11:47;;;;;;;2.00;0.80;;;;;;;;;;4990116;28;20046;-67
2023/01/12 15:14:19;;;;;;;0.88;0.70;;;;;;;;;;5008466;28;20050;-67
2023/01/12 15:25:36;;;;;;;1.52;0.90;;;;;;;;;;4961217;28;20640;-67
2023/01/12 15:28:04;;;;;;;4.22;1.15;;;;;;;;;;4957995;28;20134;-67
2023/01/12 15:30:32;;;;;;;0.65;0.65;;;;;;;;;;4986917;28;20578;-67
2023/01/12 15:32:58;;;;;;;1.13;0.88;;;;;;;;;;5003158;28;20552;-67
2023/01/12 15:35:26;;;;;;;2.47;1.00;;;;;;;;;;5002934;28;20426;-67
2023/01/12 15:37:54;;;;;;;1.48;0.90;;;;;;;;;;5014150;28;20446;-67
2023/01/12 15:40:21;;;;;;;0.88;0.88;;;;;;;;;;5014557;28;20493;-67
2023/01/12 15:42:49;;;;;;;1.23;0.90;;;;;;;;;;5017171;28;20053;-68
2023/01/12 15:45:30;;;;;;;0.93;0.75;;;;;;;;;;5009308;28;20053;-68
2023/01/12 15:47:56;;;;;;;;;;;;;;;;;;5012277;28;20053;-68
2023/01/12 15:50:23;;;;;;;1.60;0.98;;;;;;;;;;5016813;28;19931;-68